Terminal Aerodrome Forecast
Issued by NWS

Home | Current Version | Previous Version | Text Only | Print | Product List | Glossary On
Versions: 1 2 3 4 5 6 7 8 9 10 11 12 13 14 15 16 17 18 19 20 21 22 23 24 25 26
000
FTUS46 KLOX 011400 AAB
TAFOXR
TAF AMD
KOXR 011402Z 0114/0212 00000KT 5SM HZ SKC
     FM011500 VRB03KT P6SM SCT015
     FM011800 26012KT P6SM FEW015
     FM020500 VRB03KT P6SM BKN007
     FM021000 VRB03KT 4SM BR OVC004=

USA.gov is the U.S. government's official web portal to all federal, state and local government web resources and services.